sensor_id;sensor_type;location;lat;lon;timestamp;P1;durP1;ratioP1;P2;durP2;ratioP2
65206;SDS011;58477;48.072;11.970;2023-04-03T00:00:59;13.85;;;8.85;;
65206;SDS011;58477;48.072;11.970;2023-04-03T00:03:25;11.90;;;7.82;;
65206;SDS011;58477;48.072;11.970;2023-04-03T00:05:50;15.48;;;10.20;;
65206;SDS011;58477;48.072;11.970;2023-04-03T00:08:16;14.32;;;9.35;;
65206;SDS011;58477;48.072;11.970;2023-04-03T00:10:41;12.23;;;7.95;;
65206;SDS011;58477;48.072;11.970;2023-04-03T00:13:07;12.10;;;7.03;;
65206;SDS011;58477;48.072;11.970;2023-04-03T00:15:34;15.70;;;10.38;;
65206;SDS011;58477;48.072;11.970;2023-04-03T00:18:00;13.90;;;10.07;;
65206;SDS011;58477;48.072;11.970;2023-04-03T00:20:26;14.95;;;9.43;;
65206;SDS011;58477;48.072;11.970;2023-04-03T00:22:52;13.75;;;9.10;;
65206;SDS011;58477;48.072;11.970;2023-04-03T00:25:18;14.18;;;9.35;;
65206;SDS011;58477;48.072;11.970;2023-04-03T00:27:44;13.32;;;9.13;;
65206;SDS011;58477;48.072;11.970;2023-04-03T00:30:10;14.65;;;9.55;;
65206;SDS011;58477;48.072;11.970;2023-04-03T00:32:38;15.13;;;9.48;;
65206;SDS011;58477;48.072;11.970;2023-04-03T00:35:03;13.27;;;9.32;;
65206;SDS011;58477;48.072;11.970;2023-04-03T00:37:29;11.38;;;8.07;;
65206;SDS011;58477;48.072;11.970;2023-04-03T00:39:56;11.02;;;8.43;;
65206;SDS011;58477;48.072;11.970;2023-04-03T00:42:21;13.88;;;8.20;;
65206;SDS011;58477;48.072;11.970;2023-04-03T00:47:13;11.38;;;7.78;;
65206;SDS011;58477;48.072;11.970;2023-04-03T00:49:42;11.40;;;8.25;;
65206;SDS011;58477;48.072;11.970;2023-04-03T00:52:08;10.05;;;7.35;;
65206;SDS011;58477;48.072;11.970;2023-04-03T00:54:38;10.40;;;7.28;;
65206;SDS011;58477;48.072;11.970;2023-04-03T00:57:06;10.57;;;7.30;;
65206;SDS011;58477;48.072;11.970;2023-04-03T00:59:34;10.00;;;6.95;;
65206;SDS011;58477;48.072;11.970;2023-04-03T01:02:04;9.10;;;6.63;;
65206;SDS011;58477;48.072;11.970;2023-04-03T01:04:34;8.63;;;6.50;;
65206;SDS011;58477;48.072;11.970;2023-04-03T01:07:11;8.93;;;6.40;;
65206;SDS011;58477;48.072;11.970;2023-04-03T01:09:40;9.38;;;6.43;;
65206;SDS011;58477;48.072;11.970;2023-04-03T01:12:16;14.65;;;7.32;;
65206;SDS011;58477;48.072;11.970;2023-04-03T01:14:48;10.63;;;6.70;;
65206;SDS011;58477;48.072;11.970;2023-04-03T01:17:34;9.35;;;7.85;;
65206;SDS011;58477;48.072;11.970;2023-04-03T01:25:35;10.07;;;7.10;;
65206;SDS011;58477;48.072;11.970;2023-04-03T01:28:04;8.63;;;6.60;;
65206;SDS011;58477;48.072;11.970;2023-04-03T01:30:32;9.18;;;6.85;;
65206;SDS011;58477;48.072;11.970;2023-04-03T01:33:00;12.15;;;7.93;;
65206;SDS011;58477;48.072;11.970;2023-04-03T01:35:26;10.90;;;7.05;;
65206;SDS011;58477;48.072;11.970;2023-04-03T01:37:52;13.13;;;7.43;;
65206;SDS011;58477;48.072;11.970;2023-04-03T01:40:17;9.57;;;6.70;;
65206;SDS011;58477;48.072;11.970;2023-04-03T01:42:45;9.75;;;7.13;;
65206;SDS011;58477;48.072;11.970;2023-04-03T01:45:11;9.90;;;6.95;;
65206;SDS011;58477;48.072;11.970;2023-04-03T01:47:37;8.70;;;6.50;;
65206;SDS011;58477;48.072;11.970;2023-04-03T01:50:02;9.95;;;6.97;;
65206;SDS011;58477;48.072;11.970;2023-04-03T01:52:31;9.35;;;6.70;;
65206;SDS011;58477;48.072;11.970;2023-04-03T01:54:56;10.70;;;7.05;;
65206;SDS011;58477;48.072;11.970;2023-04-03T01:57:22;8.98;;;6.75;;
65206;SDS011;58477;48.072;11.970;2023-04-03T01:59:48;9.43;;;6.15;;
65206;SDS011;58477;48.072;11.970;2023-04-03T02:02:13;8.35;;;6.57;;
65206;SDS011;58477;48.072;11.970;2023-04-03T02:04:39;9.05;;;6.90;;
65206;SDS011;58477;48.072;11.970;2023-04-03T02:07:06;11.23;;;6.40;;
65206;SDS011;58477;48.072;11.970;2023-04-03T02:09:32;8.10;;;6.20;;
65206;SDS011;58477;48.072;11.970;2023-04-03T02:11:57;9.70;;;6.72;;
65206;SDS011;58477;48.072;11.970;2023-04-03T02:14:23;11.23;;;6.65;;
65206;SDS011;58477;48.072;11.970;2023-04-03T02:16:49;8.02;;;6.72;;
65206;SDS011;58477;48.072;11.970;2023-04-03T02:19:14;9.23;;;5.90;;
65206;SDS011;58477;48.072;11.970;2023-04-03T02:21:41;7.45;;;5.85;;
65206;SDS011;58477;48.072;11.970;2023-04-03T02:24:06;7.30;;;5.95;;
65206;SDS011;58477;48.072;11.970;2023-04-03T02:26:33;8.52;;;5.50;;
65206;SDS011;58477;48.072;11.970;2023-04-03T02:28:58;6.78;;;5.68;;
65206;SDS011;58477;48.072;11.970;2023-04-03T02:31:24;8.30;;;6.25;;
65206;SDS011;58477;48.072;11.970;2023-04-03T02:33:50;8.68;;;5.43;;
65206;SDS011;58477;48.072;11.970;2023-04-03T02:36:16;7.47;;;5.53;;
65206;SDS011;58477;48.072;11.970;2023-04-03T02:38:47;7.22;;;5.00;;
65206;SDS011;58477;48.072;11.970;2023-04-03T02:41:13;6.47;;;5.13;;
65206;SDS011;58477;48.072;11.970;2023-04-03T02:43:39;6.50;;;5.40;;
65206;SDS011;58477;48.072;11.970;2023-04-03T02:46:05;5.95;;;4.93;;
65206;SDS011;58477;48.072;11.970;2023-04-03T02:48:31;5.53;;;4.55;;
65206;SDS011;58477;48.072;11.970;2023-04-03T02:50:57;6.93;;;5.40;;
65206;SDS011;58477;48.072;11.970;2023-04-03T02:53:22;6.78;;;5.70;;
65206;SDS011;58477;48.072;11.970;2023-04-03T02:55:49;6.75;;;5.65;;
65206;SDS011;58477;48.072;11.970;2023-04-03T02:58:15;8.90;;;5.50;;
65206;SDS011;58477;48.072;11.970;2023-04-03T03:00:40;6.95;;;5.22;;
65206;SDS011;58477;48.072;11.970;2023-04-03T03:03:06;7.55;;;5.40;;
65206;SDS011;58477;48.072;11.970;2023-04-03T03:05:31;7.03;;;5.75;;
65206;SDS011;58477;48.072;11.970;2023-04-03T03:07:57;5.80;;;4.97;;
65206;SDS011;58477;48.072;11.970;2023-04-03T03:10:22;8.02;;;5.70;;
65206;SDS011;58477;48.072;11.970;2023-04-03T03:12:48;8.27;;;5.70;;
65206;SDS011;58477;48.072;11.970;2023-04-03T03:15:14;7.93;;;6.15;;
65206;SDS011;58477;48.072;11.970;2023-04-03T03:17:40;9.20;;;5.57;;
65206;SDS011;58477;48.072;11.970;2023-04-03T03:20:06;8.45;;;6.13;;
65206;SDS011;58477;48.072;11.970;2023-04-03T03:22:34;9.00;;;6.30;;
65206;SDS011;58477;48.072;11.970;2023-04-03T03:25:00;7.25;;;5.82;;
65206;SDS011;58477;48.072;11.970;2023-04-03T03:27:26;8.02;;;5.75;;
65206;SDS011;58477;48.072;11.970;2023-04-03T03:29:51;10.15;;;6.13;;
65206;SDS011;58477;48.072;11.970;2023-04-03T03:32:17;9.45;;;5.47;;
65206;SDS011;58477;48.072;11.970;2023-04-03T03:34:43;6.03;;;5.00;;
65206;SDS011;58477;48.072;11.970;2023-04-03T03:37:08;6.63;;;5.10;;
65206;SDS011;58477;48.072;11.970;2023-04-03T03:39:33;7.78;;;5.40;;
65206;SDS011;58477;48.072;11.970;2023-04-03T03:41:59;6.07;;;5.47;;
65206;SDS011;58477;48.072;11.970;2023-04-03T03:44:25;10.27;;;5.57;;
65206;SDS011;58477;48.072;11.970;2023-04-03T03:46:52;7.13;;;5.60;;
65206;SDS011;58477;48.072;11.970;2023-04-03T03:49:17;6.70;;;5.38;;
65206;SDS011;58477;48.072;11.970;2023-04-03T03:51:43;6.18;;;5.30;;
65206;SDS011;58477;48.072;11.970;2023-04-03T03:54:09;7.97;;;5.25;;
65206;SDS011;58477;48.072;11.970;2023-04-03T03:56:35;9.68;;;5.35;;
65206;SDS011;58477;48.072;11.970;2023-04-03T03:59:01;6.40;;;5.47;;
65206;SDS011;58477;48.072;11.970;2023-04-03T04:01:26;7.22;;;5.50;;
65206;SDS011;58477;48.072;11.970;2023-04-03T04:03:52;7.82;;;5.95;;
65206;SDS011;58477;48.072;11.970;2023-04-03T04:06:22;5.90;;;5.00;;
65206;SDS011;58477;48.072;11.970;2023-04-03T04:08:49;6.47;;;5.25;;
65206;SDS011;58477;48.072;11.970;2023-04-03T04:11:14;6.60;;;4.97;;
65206;SDS011;58477;48.072;11.970;2023-04-03T04:13:41;6.07;;;5.13;;
65206;SDS011;58477;48.072;11.970;2023-04-03T04:16:09;6.63;;;5.32;;
65206;SDS011;58477;48.072;11.970;2023-04-03T04:18:35;6.82;;;5.53;;
65206;SDS011;58477;48.072;11.970;2023-04-03T04:21:00;7.78;;;5.60;;
65206;SDS011;58477;48.072;11.970;2023-04-03T04:23:26;7.07;;;5.28;;
65206;SDS011;58477;48.072;11.970;2023-04-03T04:25:52;7.07;;;4.97;;
65206;SDS011;58477;48.072;11.970;2023-04-03T04:28:19;6.03;;;4.75;;
65206;SDS011;58477;48.072;11.970;2023-04-03T04:30:47;6.55;;;5.10;;
65206;SDS011;58477;48.072;11.970;2023-04-03T04:33:13;7.75;;;5.05;;
65206;SDS011;58477;48.072;11.970;2023-04-03T04:35:41;6.15;;;4.90;;
65206;SDS011;58477;48.072;11.970;2023-04-03T04:38:08;6.90;;;4.47;;
65206;SDS011;58477;48.072;11.970;2023-04-03T04:40:35;6.05;;;4.80;;
65206;SDS011;58477;48.072;11.970;2023-04-03T04:43:00;5.65;;;4.72;;
65206;SDS011;58477;48.072;11.970;2023-04-03T04:45:26;8.38;;;4.82;;
65206;SDS011;58477;48.072;11.970;2023-04-03T04:47:54;6.13;;;4.43;;
65206;SDS011;58477;48.072;11.970;2023-04-03T04:50:22;6.45;;;5.00;;
65206;SDS011;58477;48.072;11.970;2023-04-03T04:52:48;4.88;;;4.18;;
65206;SDS011;58477;48.072;11.970;2023-04-03T04:55:14;5.60;;;4.85;;
65206;SDS011;58477;48.072;11.970;2023-04-03T04:57:40;7.97;;;5.20;;
65206;SDS011;58477;48.072;11.970;2023-04-03T05:00:06;9.73;;;5.93;;
65206;SDS011;58477;48.072;11.970;2023-04-03T05:02:32;6.88;;;5.40;;
65206;SDS011;58477;48.072;11.970;2023-04-03T05:04:58;7.97;;;5.30;;
65206;SDS011;58477;48.072;11.970;2023-04-03T05:07:26;9.20;;;5.28;;
65206;SDS011;58477;48.072;11.970;2023-04-03T05:09:52;5.25;;;4.10;;
65206;SDS011;58477;48.072;11.970;2023-04-03T05:12:19;5.97;;;5.05;;
65206;SDS011;58477;48.072;11.970;2023-04-03T05:17:17;5.68;;;4.53;;
65206;SDS011;58477;48.072;11.970;2023-04-03T05:19:48;5.05;;;4.18;;
65206;SDS011;58477;48.072;11.970;2023-04-03T05:22:14;6.05;;;4.50;;
65206;SDS011;58477;48.072;11.970;2023-04-03T05:24:40;6.60;;;4.20;;
65206;SDS011;58477;48.072;11.970;2023-04-03T05:27:06;9.07;;;6.40;;
65206;SDS011;58477;48.072;11.970;2023-04-03T05:29:36;11.23;;;5.90;;
65206;SDS011;58477;48.072;11.970;2023-04-03T05:32:03;7.15;;;5.00;;
65206;SDS011;58477;48.072;11.970;2023-04-03T05:34:29;6.40;;;4.60;;
65206;SDS011;58477;48.072;11.970;2023-04-03T05:36:55;4.65;;;3.97;;
65206;SDS011;58477;48.072;11.970;2023-04-03T05:39:21;3.85;;;3.45;;
65206;SDS011;58477;48.072;11.970;2023-04-03T05:41:47;5.47;;;4.22;;
65206;SDS011;58477;48.072;11.970;2023-04-03T05:44:13;4.22;;;3.83;;
65206;SDS011;58477;48.072;11.970;2023-04-03T05:46:40;6.50;;;3.40;;
65206;SDS011;58477;48.072;11.970;2023-04-03T05:49:08;4.32;;;3.88;;
65206;SDS011;58477;48.072;11.970;2023-04-03T05:51:39;7.18;;;4.50;;
65206;SDS011;58477;48.072;11.970;2023-04-03T05:54:20;6.10;;;4.50;;
65206;SDS011;58477;48.072;11.970;2023-04-03T05:56:50;5.88;;;4.10;;
65206;SDS011;58477;48.072;11.970;2023-04-03T05:59:17;7.10;;;4.07;;
65206;SDS011;58477;48.072;11.970;2023-04-03T06:01:44;4.22;;;3.83;;
65206;SDS011;58477;48.072;11.970;2023-04-03T06:04:10;4.20;;;3.65;;
65206;SDS011;58477;48.072;11.970;2023-04-03T06:07:10;4.20;;;3.53;;
65206;SDS011;58477;48.072;11.970;2023-04-03T06:09:28;4.00;;;3.63;;
65206;SDS011;58477;48.072;11.970;2023-04-03T06:11:54;4.88;;;3.80;;
65206;SDS011;58477;48.072;11.970;2023-04-03T06:14:22;6.32;;;4.30;;
65206;SDS011;58477;48.072;11.970;2023-04-03T06:16:48;5.03;;;4.05;;
65206;SDS011;58477;48.072;11.970;2023-04-03T06:19:13;4.18;;;3.78;;
65206;SDS011;58477;48.072;11.970;2023-04-03T06:21:44;6.78;;;4.38;;
65206;SDS011;58477;48.072;11.970;2023-04-03T06:24:09;3.53;;;3.20;;
65206;SDS011;58477;48.072;11.970;2023-04-03T06:26:38;5.18;;;3.78;;
65206;SDS011;58477;48.072;11.970;2023-04-03T06:29:04;6.65;;;4.35;;
65206;SDS011;58477;48.072;11.970;2023-04-03T06:31:29;8.18;;;4.30;;
65206;SDS011;58477;48.072;11.970;2023-04-03T06:33:55;4.57;;;3.75;;
65206;SDS011;58477;48.072;11.970;2023-04-03T06:36:21;4.80;;;3.53;;
65206;SDS011;58477;48.072;11.970;2023-04-03T06:38:47;7.20;;;4.22;;
65206;SDS011;58477;48.072;11.970;2023-04-03T06:41:13;4.20;;;3.80;;
65206;SDS011;58477;48.072;11.970;2023-04-03T06:43:38;7.13;;;3.85;;
65206;SDS011;58477;48.072;11.970;2023-04-03T06:46:04;4.18;;;3.13;;
65206;SDS011;58477;48.072;11.970;2023-04-03T06:48:30;5.20;;;3.25;;
65206;SDS011;58477;48.072;11.970;2023-04-03T06:50:56;4.53;;;3.45;;
65206;SDS011;58477;48.072;11.970;2023-04-03T06:53:21;4.75;;;3.67;;
65206;SDS011;58477;48.072;11.970;2023-04-03T06:55:47;4.38;;;3.20;;
65206;SDS011;58477;48.072;11.970;2023-04-03T06:58:12;3.33;;;3.03;;
65206;SDS011;58477;48.072;11.970;2023-04-03T07:00:40;6.68;;;4.47;;
65206;SDS011;58477;48.072;11.970;2023-04-03T07:03:05;4.35;;;3.47;;
65206;SDS011;58477;48.072;11.970;2023-04-03T07:05:31;5.53;;;4.07;;
65206;SDS011;58477;48.072;11.970;2023-04-03T07:07:57;5.38;;;3.53;;
65206;SDS011;58477;48.072;11.970;2023-04-03T07:10:22;7.03;;;4.07;;
65206;SDS011;58477;48.072;11.970;2023-04-03T07:12:48;5.18;;;3.72;;
65206;SDS011;58477;48.072;11.970;2023-04-03T07:15:13;4.85;;;4.32;;
65206;SDS011;58477;48.072;11.970;2023-04-03T07:17:39;6.18;;;3.85;;
65206;SDS011;58477;48.072;11.970;2023-04-03T07:20:05;2.25;;;1.98;;
65206;SDS011;58477;48.072;11.970;2023-04-03T07:22:31;6.93;;;3.60;;
65206;SDS011;58477;48.072;11.970;2023-04-03T07:24:56;2.38;;;2.17;;
65206;SDS011;58477;48.072;11.970;2023-04-03T07:27:24;6.50;;;3.85;;
65206;SDS011;58477;48.072;11.970;2023-04-03T07:29:50;4.50;;;3.50;;
65206;SDS011;58477;48.072;11.970;2023-04-03T07:32:15;6.65;;;5.07;;
65206;SDS011;58477;48.072;11.970;2023-04-03T07:34:41;5.38;;;3.78;;
65206;SDS011;58477;48.072;11.970;2023-04-03T07:37:06;5.63;;;3.42;;
65206;SDS011;58477;48.072;11.970;2023-04-03T07:39:34;4.25;;;3.55;;
65206;SDS011;58477;48.072;11.970;2023-04-03T07:41:59;4.13;;;3.75;;
65206;SDS011;58477;48.072;11.970;2023-04-03T07:44:25;4.40;;;3.85;;
65206;SDS011;58477;48.072;11.970;2023-04-03T07:46:51;5.28;;;3.72;;
65206;SDS011;58477;48.072;11.970;2023-04-03T07:49:17;5.90;;;3.72;;
65206;SDS011;58477;48.072;11.970;2023-04-03T07:51:48;4.45;;;3.63;;
65206;SDS011;58477;48.072;11.970;2023-04-03T07:54:13;6.00;;;3.67;;
65206;SDS011;58477;48.072;11.970;2023-04-03T07:56:40;7.38;;;3.58;;
65206;SDS011;58477;48.072;11.970;2023-04-03T07:59:06;5.15;;;3.33;;
65206;SDS011;58477;48.072;11.970;2023-04-03T08:01:31;4.45;;;3.38;;
65206;SDS011;58477;48.072;11.970;2023-04-03T08:03:58;7.38;;;4.10;;
65206;SDS011;58477;48.072;11.970;2023-04-03T08:06:24;4.45;;;3.53;;
65206;SDS011;58477;48.072;11.970;2023-04-03T08:08:50;3.72;;;3.17;;
65206;SDS011;58477;48.072;11.970;2023-04-03T08:11:15;5.68;;;3.55;;
65206;SDS011;58477;48.072;11.970;2023-04-03T08:13:40;5.28;;;3.67;;
65206;SDS011;58477;48.072;11.970;2023-04-03T08:16:08;4.00;;;3.55;;
65206;SDS011;58477;48.072;11.970;2023-04-03T08:18:34;5.15;;;3.58;;
65206;SDS011;58477;48.072;11.970;2023-04-03T08:21:00;3.47;;;3.17;;
65206;SDS011;58477;48.072;11.970;2023-04-03T08:23:25;3.55;;;2.97;;
65206;SDS011;58477;48.072;11.970;2023-04-03T08:25:51;7.35;;;3.47;;
65206;SDS011;58477;48.072;11.970;2023-04-03T08:28:16;6.38;;;3.85;;
65206;SDS011;58477;48.072;11.970;2023-04-03T08:30:42;5.60;;;3.70;;
65206;SDS011;58477;48.072;11.970;2023-04-03T08:33:08;4.90;;;4.10;;
65206;SDS011;58477;48.072;11.970;2023-04-03T08:35:38;4.97;;;3.22;;
65206;SDS011;58477;48.072;11.970;2023-04-03T08:38:04;7.55;;;4.15;;
65206;SDS011;58477;48.072;11.970;2023-04-03T08:40:29;3.55;;;3.20;;
65206;SDS011;58477;48.072;11.970;2023-04-03T08:45:47;5.25;;;3.35;;
65206;SDS011;58477;48.072;11.970;2023-04-03T08:48:17;3.58;;;3.22;;
65206;SDS011;58477;48.072;11.970;2023-04-03T08:50:47;5.60;;;3.97;;
65206;SDS011;58477;48.072;11.970;2023-04-03T08:53:19;4.68;;;4.20;;
65206;SDS011;58477;48.072;11.970;2023-04-03T08:55:49;4.05;;;3.55;;
65206;SDS011;58477;48.072;11.970;2023-04-03T08:58:20;6.90;;;4.60;;
65206;SDS011;58477;48.072;11.970;2023-04-03T09:00:48;10.82;;;3.70;;
65206;SDS011;58477;48.072;11.970;2023-04-03T09:03:28;4.30;;;3.33;;
65206;SDS011;58477;48.072;11.970;2023-04-03T09:06:03;5.88;;;3.72;;
65206;SDS011;58477;48.072;11.970;2023-04-03T09:11:32;6.00;;;3.47;;
65206;SDS011;58477;48.072;11.970;2023-04-03T09:17:10;6.28;;;4.00;;
65206;SDS011;58477;48.072;11.970;2023-04-03T09:22:23;4.30;;;3.70;;
65206;SDS011;58477;48.072;11.970;2023-04-03T09:25:36;5.47;;;4.07;;
65206;SDS011;58477;48.072;11.970;2023-04-03T09:27:43;5.05;;;2.95;;
65206;SDS011;58477;48.072;11.970;2023-04-03T09:30:13;3.60;;;3.30;;
65206;SDS011;58477;48.072;11.970;2023-04-03T09:32:40;3.33;;;2.72;;
65206;SDS011;58477;48.072;11.970;2023-04-03T09:37:39;5.18;;;3.63;;
65206;SDS011;58477;48.072;11.970;2023-04-03T09:41:02;3.42;;;2.42;;
65206;SDS011;58477;48.072;11.970;2023-04-03T09:42:58;6.80;;;3.70;;
65206;SDS011;58477;48.072;11.970;2023-04-03T09:45:29;6.72;;;3.50;;
65206;SDS011;58477;48.072;11.970;2023-04-03T09:50:56;7.13;;;3.33;;
65206;SDS011;58477;48.072;11.970;2023-04-03T09:53:37;7.15;;;2.75;;
65206;SDS011;58477;48.072;11.970;2023-04-03T09:58:46;4.75;;;3.38;;
65206;SDS011;58477;48.072;11.970;2023-04-03T10:01:56;4.10;;;3.40;;
65206;SDS011;58477;48.072;11.970;2023-04-03T10:04:11;7.05;;;3.90;;
65206;SDS011;58477;48.072;11.970;2023-04-03T10:06:56;3.42;;;2.97;;
65206;SDS011;58477;48.072;11.970;2023-04-03T10:09:25;3.92;;;3.50;;
65206;SDS011;58477;48.072;11.970;2023-04-03T10:14:33;3.22;;;2.92;;
65206;SDS011;58477;48.072;11.970;2023-04-03T10:19:58;3.25;;;2.80;;
65206;SDS011;58477;48.072;11.970;2023-04-03T10:28:44;3.95;;;3.50;;
65206;SDS011;58477;48.072;11.970;2023-04-03T10:31:34;5.10;;;3.95;;
65206;SDS011;58477;48.072;11.970;2023-04-03T10:34:12;7.72;;;3.63;;
65206;SDS011;58477;48.072;11.970;2023-04-03T10:42:02;7.65;;;4.35;;
65206;SDS011;58477;48.072;11.970;2023-04-03T10:44:37;5.90;;;5.15;;
65206;SDS011;58477;48.072;11.970;2023-04-03T10:47:24;8.60;;;4.78;;
65206;SDS011;58477;48.072;11.970;2023-04-03T11:00:37;5.68;;;5.07;;
65206;SDS011;58477;48.072;11.970;2023-04-03T11:03:09;5.70;;;5.00;;
65206;SDS011;58477;48.072;11.970;2023-04-03T11:11:11;5.22;;;4.60;;
65206;SDS011;58477;48.072;11.970;2023-04-03T11:16:47;4.72;;;4.22;;
65206;SDS011;58477;48.072;11.970;2023-04-03T11:25:04;10.07;;;7.70;;
65206;SDS011;58477;48.072;11.970;2023-04-03T11:27:58;6.43;;;4.82;;
65206;SDS011;58477;48.072;11.970;2023-04-03T11:30:25;6.53;;;3.90;;
65206;SDS011;58477;48.072;11.970;2023-04-03T11:35:33;5.55;;;3.15;;
65206;SDS011;58477;48.072;11.970;2023-04-03T11:38:00;3.95;;;3.33;;
65206;SDS011;58477;48.072;11.970;2023-04-03T11:40:34;6.65;;;4.63;;
65206;SDS011;58477;48.072;11.970;2023-04-03T11:43:06;8.80;;;4.68;;
65206;SDS011;58477;48.072;11.970;2023-04-03T11:50:47;7.35;;;6.10;;
65206;SDS011;58477;48.072;11.970;2023-04-03T11:58:14;8.25;;;5.85;;
65206;SDS011;58477;48.072;11.970;2023-04-03T12:14:18;5.10;;;2.88;;
65206;SDS011;58477;48.072;11.970;2023-04-03T12:34:40;5.55;;;3.05;;
65206;SDS011;58477;48.072;11.970;2023-04-03T12:42:56;3.20;;;2.65;;
65206;SDS011;58477;48.072;11.970;2023-04-03T12:48:47;3.23;;;2.30;;
65206;SDS011;58477;48.072;11.970;2023-04-03T12:51:34;4.15;;;3.25;;
65206;SDS011;58477;48.072;11.970;2023-04-03T12:54:04;4.32;;;2.13;;
65206;SDS011;58477;48.072;11.970;2023-04-03T12:56:40;4.00;;;2.15;;
65206;SDS011;58477;48.072;11.970;2023-04-03T12:59:22;2.25;;;2.05;;
65206;SDS011;58477;48.072;11.970;2023-04-03T13:01:58;3.72;;;1.70;;
65206;SDS011;58477;48.072;11.970;2023-04-03T13:04:30;2.10;;;1.90;;
65206;SDS011;58477;48.072;11.970;2023-04-03T13:06:57;3.08;;;2.40;;
65206;SDS011;58477;48.072;11.970;2023-04-03T13:09:27;4.63;;;2.47;;
65206;SDS011;58477;48.072;11.970;2023-04-03T13:11:58;1.80;;;1.70;;
65206;SDS011;58477;48.072;11.970;2023-04-03T13:14:27;2.42;;;2.15;;
65206;SDS011;58477;48.072;11.970;2023-04-03T13:16:55;2.38;;;1.65;;
65206;SDS011;58477;48.072;11.970;2023-04-03T13:19:26;6.80;;;4.00;;
65206;SDS011;58477;48.072;11.970;2023-04-03T13:21:56;2.05;;;1.88;;
65206;SDS011;58477;48.072;11.970;2023-04-03T13:24:28;2.35;;;1.70;;
65206;SDS011;58477;48.072;11.970;2023-04-03T13:26:55;2.03;;;1.60;;
65206;SDS011;58477;48.072;11.970;2023-04-03T13:29:28;2.15;;;1.70;;
65206;SDS011;58477;48.072;11.970;2023-04-03T13:31:56;2.30;;;1.88;;
65206;SDS011;58477;48.072;11.970;2023-04-03T13:34:24;1.85;;;1.65;;
65206;SDS011;58477;48.072;11.970;2023-04-03T13:41:53;5.88;;;1.90;;
65206;SDS011;58477;48.072;11.970;2023-04-03T13:46:46;1.75;;;1.60;;
65206;SDS011;58477;48.072;11.970;2023-04-03T13:49:27;2.80;;;1.80;;
65206;SDS011;58477;48.072;11.970;2023-04-03T13:55:02;1.83;;;1.70;;
65206;SDS011;58477;48.072;11.970;2023-04-03T13:58:51;3.67;;;1.42;;
65206;SDS011;58477;48.072;11.970;2023-04-03T14:00:37;1.42;;;1.33;;
65206;SDS011;58477;48.072;11.970;2023-04-03T14:03:17;1.50;;;1.40;;
65206;SDS011;58477;48.072;11.970;2023-04-03T14:05:54;2.38;;;2.17;;
65206;SDS011;58477;48.072;11.970;2023-04-03T14:08:19;7.65;;;3.78;;
65206;SDS011;58477;48.072;11.970;2023-04-03T14:10:45;2.05;;;1.40;;
65206;SDS011;58477;48.072;11.970;2023-04-03T14:13:15;3.30;;;2.50;;
65206;SDS011;58477;48.072;11.970;2023-04-03T14:15:43;3.60;;;2.00;;
65206;SDS011;58477;48.072;11.970;2023-04-03T14:18:11;2.15;;;1.60;;
65206;SDS011;58477;48.072;11.970;2023-04-03T14:20:37;2.97;;;1.60;;
65206;SDS011;58477;48.072;11.970;2023-04-03T14:23:02;5.63;;;2.40;;
65206;SDS011;58477;48.072;11.970;2023-04-03T14:25:28;4.03;;;2.20;;
65206;SDS011;58477;48.072;11.970;2023-04-03T14:27:54;2.55;;;1.50;;
65206;SDS011;58477;48.072;11.970;2023-04-03T14:30:24;5.45;;;1.98;;
65206;SDS011;58477;48.072;11.970;2023-04-03T14:32:55;5.20;;;2.20;;
65206;SDS011;58477;48.072;11.970;2023-04-03T14:35:20;12.18;;;2.97;;
65206;SDS011;58477;48.072;11.970;2023-04-03T14:37:47;1.58;;;1.40;;
65206;SDS011;58477;48.072;11.970;2023-04-03T14:40:23;3.28;;;1.60;;
65206;SDS011;58477;48.072;11.970;2023-04-03T14:42:51;2.60;;;1.30;;
65206;SDS011;58477;48.072;11.970;2023-04-03T14:45:20;1.77;;;1.55;;
65206;SDS011;58477;48.072;11.970;2023-04-03T14:47:48;2.60;;;1.52;;
65206;SDS011;58477;48.072;11.970;2023-04-03T14:50:20;4.40;;;2.63;;
65206;SDS011;58477;48.072;11.970;2023-04-03T14:52:51;3.47;;;2.30;;
65206;SDS011;58477;48.072;11.970;2023-04-03T14:55:20;8.40;;;2.30;;
65206;SDS011;58477;48.072;11.970;2023-04-03T14:57:47;3.03;;;2.40;;
65206;SDS011;58477;48.072;11.970;2023-04-03T15:00:19;3.28;;;2.08;;
65206;SDS011;58477;48.072;11.970;2023-04-03T15:02:46;1.98;;;1.80;;
65206;SDS011;58477;48.072;11.970;2023-04-03T15:05:12;2.40;;;1.73;;
65206;SDS011;58477;48.072;11.970;2023-04-03T15:07:41;1.88;;;1.52;;
65206;SDS011;58477;48.072;11.970;2023-04-03T15:10:18;2.78;;;2.40;;
65206;SDS011;58477;48.072;11.970;2023-04-03T15:12:46;3.90;;;2.28;;
65206;SDS011;58477;48.072;11.970;2023-04-03T15:15:13;2.33;;;1.80;;
65206;SDS011;58477;48.072;11.970;2023-04-03T15:17:40;3.60;;;1.95;;
65206;SDS011;58477;48.072;11.970;2023-04-03T15:20:15;5.40;;;1.60;;
65206;SDS011;58477;48.072;11.970;2023-04-03T15:22:44;3.47;;;1.58;;
65206;SDS011;58477;48.072;11.970;2023-04-03T15:25:10;2.63;;;1.85;;
65206;SDS011;58477;48.072;11.970;2023-04-03T15:27:37;4.35;;;1.80;;
65206;SDS011;58477;48.072;11.970;2023-04-03T15:30:10;2.03;;;1.70;;
65206;SDS011;58477;48.072;11.970;2023-04-03T15:32:41;3.45;;;1.50;;
65206;SDS011;58477;48.072;11.970;2023-04-03T15:35:07;3.65;;;1.42;;
65206;SDS011;58477;48.072;11.970;2023-04-03T15:37:33;3.47;;;1.60;;
65206;SDS011;58477;48.072;11.970;2023-04-03T15:40:02;3.80;;;2.55;;
65206;SDS011;58477;48.072;11.970;2023-04-03T15:42:32;1.60;;;1.50;;
65206;SDS011;58477;48.072;11.970;2023-04-03T15:45:00;2.35;;;1.45;;
65206;SDS011;58477;48.072;11.970;2023-04-03T15:47:30;4.90;;;1.40;;
65206;SDS011;58477;48.072;11.970;2023-04-03T15:50:00;2.97;;;2.28;;
65206;SDS011;58477;48.072;11.970;2023-04-03T15:52:29;5.18;;;1.88;;
65206;SDS011;58477;48.072;11.970;2023-04-03T15:54:58;2.83;;;2.00;;
65206;SDS011;58477;48.072;11.970;2023-04-03T15:57:24;7.53;;;3.53;;
65206;SDS011;58477;48.072;11.970;2023-04-03T15:59:53;5.10;;;2.47;;
65206;SDS011;58477;48.072;11.970;2023-04-03T16:02:19;1.80;;;1.40;;
65206;SDS011;58477;48.072;11.970;2023-04-03T16:04:53;3.88;;;1.35;;
65206;SDS011;58477;48.072;11.970;2023-04-03T16:07:26;2.65;;;1.50;;
65206;SDS011;58477;48.072;11.970;2023-04-03T16:09:54;3.33;;;1.60;;
65206;SDS011;58477;48.072;11.970;2023-04-03T16:12:21;2.70;;;1.50;;
65206;SDS011;58477;48.072;11.970;2023-04-03T16:14:50;2.08;;;1.45;;
65206;SDS011;58477;48.072;11.970;2023-04-03T16:17:19;5.78;;;0.80;;
65206;SDS011;58477;48.072;11.970;2023-04-03T16:19:45;2.65;;;1.63;;
65206;SDS011;58477;48.072;11.970;2023-04-03T16:22:14;2.13;;;1.80;;
65206;SDS011;58477;48.072;11.970;2023-04-03T16:24:40;3.38;;;2.58;;
65206;SDS011;58477;48.072;11.970;2023-04-03T16:27:10;3.13;;;1.88;;
65206;SDS011;58477;48.072;11.970;2023-04-03T16:29:35;2.28;;;1.50;;
65206;SDS011;58477;48.072;11.970;2023-04-03T16:35:20;2.47;;;1.70;;
65206;SDS011;58477;48.072;11.970;2023-04-03T16:37:49;3.92;;;1.48;;
65206;SDS011;58477;48.072;11.970;2023-04-03T16:40:15;2.42;;;1.45;;
65206;SDS011;58477;48.072;11.970;2023-04-03T16:42:41;3.85;;;2.03;;
65206;SDS011;58477;48.072;11.970;2023-04-03T16:45:06;2.28;;;1.40;;
65206;SDS011;58477;48.072;11.970;2023-04-03T16:47:32;2.70;;;1.50;;
65206;SDS011;58477;48.072;11.970;2023-04-03T16:49:58;4.88;;;2.03;;
65206;SDS011;58477;48.072;11.970;2023-04-03T16:52:23;4.82;;;1.75;;
65206;SDS011;58477;48.072;11.970;2023-04-03T16:54:49;2.00;;;1.50;;
65206;SDS011;58477;48.072;11.970;2023-04-03T16:57:16;2.63;;;2.13;;
65206;SDS011;58477;48.072;11.970;2023-04-03T16:59:42;3.25;;;2.92;;